Bayview Harbors, NJ

5:52 AM EST on December 08, 2016 (GMT -0500)
Goose Creek | | Change Station

Elev 11 ft 39.96 °N, 74.12 °W | Updated 5 seconds ago

Partly Cloudy
Partly Cloudy
33.1 °F
Feels Like 33 °F
N
3.0
Wind Variable Wind from WSW
Gusts 7.0 mph

Today
High -- | Low -- °F
--% Chance of Precip.
Yesterday
High -- | Low -- °F
Precip. -- in
Pressure 30.04 in
Visibility 6.0 miles
Clouds Clear
Windchill 33 °F
Dew Point 31 °F
Humidity 92%
Rainfall 0.00 in
Snow Depth Not available.
7:06 AM 4:31 PM
Waxing Gibbous, 62% visible
METAR KMJX 080956Z AUTO 00000KT 6SM BR CLR M03/M03 A3002 RMK AO2 SLP171 T10281033 FZRANO PNO $
Pressure 30.04 in
Visibility 6.0 miles
Clouds Clear
Windchill 33 °F
Dew Point 31 °F
Humidity 92%
Rainfall 0.00 in
Snow Depth Not available.
7:06 AM 4:31 PM
Waxing Gibbous, 62% visible
METAR KMJX 080956Z AUTO 00000KT 6SM BR CLR M03/M03 A3002 RMK AO2 SLP171 T10281033 FZRANO PNO $

10-Day Weather Forecast

Almanac

Astronomy

Dec. 08, 2016 Rise Set
Actual Time
Civil Twilight
Nautical Twilight
Astronomical Twilight
Moon
Length of Visible Light
Length of Day
Tomorrow will be .
, % of the Moon is Illuminated

Today's Extremes

State Highs State Lows

Community

WunderPhotos

Upload Photos

1,956,261 photos uploaded!

WunderBlog® & News

Nearby

Air Quality

  Air Quality AQ Index Pollutant
Not available.

Snow Depth

Station Depth Elevation

Earthquake Activity

City Distance Mag. Time & Date
Minimum magnitude displayed is 2.5.

Coastal Water Temperatures

Place Temperature

Stations

Nearby Weather Stations

Station Location Temp. Windchill Dew Point Humidity Wind Precip. Elev Updated Type
                   

Watches & Warnings

There are currently no watches in effect.